sensor_id;sensor_type;location;lat;lon;timestamp;pressure;altitude;pressure_sealevel;temperature;humidity
61359;BME280;47228;46.762;23.598;2023-05-24T00:00:29;96973.55;;;14.83;60.40
61359;BME280;47228;46.762;23.598;2023-05-24T00:03:17;96971.95;;;14.81;60.60
61359;BME280;47228;46.762;23.598;2023-05-24T00:05:45;96968.83;;;14.80;60.40
61359;BME280;47228;46.762;23.598;2023-05-24T00:08:13;96965.25;;;14.77;60.30
61359;BME280;47228;46.762;23.598;2023-05-24T00:10:44;96966.29;;;14.76;60.33
61359;BME280;47228;46.762;23.598;2023-05-24T00:13:13;96966.61;;;14.77;60.33
61359;BME280;47228;46.762;23.598;2023-05-24T00:15:42;96964.70;;;14.77;60.31
61359;BME280;47228;46.762;23.598;2023-05-24T00:18:10;96963.17;;;14.78;60.53
61359;BME280;47228;46.762;23.598;2023-05-24T00:20:38;96967.60;;;14.77;60.42
61359;BME280;47228;46.762;23.598;2023-05-24T00:23:07;96962.17;;;14.76;60.38
61359;BME280;47228;46.762;23.598;2023-05-24T00:25:35;96962.51;;;14.77;60.39
61359;BME280;47228;46.762;23.598;2023-05-24T00:28:03;96963.41;;;14.76;60.46
61359;BME280;47228;46.762;23.598;2023-05-24T00:30:31;96961.92;;;14.74;60.40
61359;BME280;47228;46.762;23.598;2023-05-24T00:32:59;96962.40;;;14.71;60.48
61359;BME280;47228;46.762;23.598;2023-05-24T00:35:27;96958.95;;;14.67;60.40
61359;BME280;47228;46.762;23.598;2023-05-24T00:37:55;96955.95;;;14.64;60.09
61359;BME280;47228;46.762;23.598;2023-05-24T00:40:23;96955.77;;;14.60;60.13
61359;BME280;47228;46.762;23.598;2023-05-24T00:42:52;96949.09;;;14.57;60.19
61359;BME280;47228;46.762;23.598;2023-05-24T00:45:20;96945.01;;;14.52;60.25
61359;BME280;47228;46.762;23.598;2023-05-24T00:47:48;96941.73;;;14.48;60.50
61359;BME280;47228;46.762;23.598;2023-05-24T00:50:16;96941.07;;;14.45;60.70
61359;BME280;47228;46.762;23.598;2023-05-24T00:52:46;96940.50;;;14.43;60.60
61359;BME280;47228;46.762;23.598;2023-05-24T00:55:16;96944.09;;;14.41;60.94
61359;BME280;47228;46.762;23.598;2023-05-24T00:57:44;96950.52;;;14.38;60.87
61359;BME280;47228;46.762;23.598;2023-05-24T01:00:12;96953.75;;;14.37;60.94
61359;BME280;47228;46.762;23.598;2023-05-24T01:02:40;96960.11;;;14.34;61.03
61359;BME280;47228;46.762;23.598;2023-05-24T01:05:09;96972.86;;;14.31;61.21
61359;BME280;47228;46.762;23.598;2023-05-24T01:10:34;96989.20;;;14.12;62.48
61359;BME280;47228;46.762;23.598;2023-05-24T01:13:07;96990.99;;;13.98;62.72
61359;BME280;47228;46.762;23.598;2023-05-24T01:15:47;96992.95;;;13.89;63.07
61359;BME280;47228;46.762;23.598;2023-05-24T01:18:31;96989.17;;;13.82;63.27
61359;BME280;47228;46.762;23.598;2023-05-24T01:24:17;96983.27;;;13.84;63.40
61359;BME280;47228;46.762;23.598;2023-05-24T01:27:12;96979.80;;;13.88;63.42
61359;BME280;47228;46.762;23.598;2023-05-24T01:29:41;96977.70;;;13.93;63.28
61359;BME280;47228;46.762;23.598;2023-05-24T01:32:09;96982.14;;;13.96;63.06
61359;BME280;47228;46.762;23.598;2023-05-24T01:34:37;96981.29;;;13.98;62.97
61359;BME280;47228;46.762;23.598;2023-05-24T01:37:05;96980.50;;;14.01;62.35
61359;BME280;47228;46.762;23.598;2023-05-24T01:39:33;96981.23;;;14.03;62.02
61359;BME280;47228;46.762;23.598;2023-05-24T01:47:27;96972.68;;;14.08;61.05
61359;BME280;47228;46.762;23.598;2023-05-24T01:50:16;96973.14;;;14.06;61.10
61359;BME280;47228;46.762;23.598;2023-05-24T01:52:45;96967.60;;;14.03;60.96
61359;BME280;47228;46.762;23.598;2023-05-24T01:55:16;96968.91;;;13.99;61.18
61359;BME280;47228;46.762;23.598;2023-05-24T01:57:45;96969.59;;;13.96;61.22
61359;BME280;47228;46.762;23.598;2023-05-24T02:00:17;96967.73;;;13.94;61.37
61359;BME280;47228;46.762;23.598;2023-05-24T02:02:46;96963.46;;;13.94;61.57
61359;BME280;47228;46.762;23.598;2023-05-24T02:05:14;96956.41;;;13.93;61.49
61359;BME280;47228;46.762;23.598;2023-05-24T02:07:42;96956.06;;;13.92;61.63
61359;BME280;47228;46.762;23.598;2023-05-24T02:10:10;96956.77;;;13.90;61.76
61359;BME280;47228;46.762;23.598;2023-05-24T02:12:38;96957.77;;;13.87;61.87
61359;BME280;47228;46.762;23.598;2023-05-24T02:15:07;96962.54;;;13.82;61.85
61359;BME280;47228;46.762;23.598;2023-05-24T02:17:35;96969.25;;;13.77;62.14
61359;BME280;47228;46.762;23.598;2023-05-24T02:20:03;96970.52;;;13.69;62.57
61359;BME280;47228;46.762;23.598;2023-05-24T02:22:31;96972.36;;;13.63;62.68
61359;BME280;47228;46.762;23.598;2023-05-24T02:24:59;96971.42;;;13.59;62.69
61359;BME280;47228;46.762;23.598;2023-05-24T02:27:27;96974.36;;;13.56;62.83
61359;BME280;47228;46.762;23.598;2023-05-24T02:29:55;96971.89;;;13.56;62.95
61359;BME280;47228;46.762;23.598;2023-05-24T02:32:24;96975.86;;;13.57;63.08
61359;BME280;47228;46.762;23.598;2023-05-24T02:34:51;96979.78;;;13.59;62.99
61359;BME280;47228;46.762;23.598;2023-05-24T02:37:19;96977.84;;;13.60;63.11
61359;BME280;47228;46.762;23.598;2023-05-24T02:39:47;96974.20;;;13.59;63.17
61359;BME280;47228;46.762;23.598;2023-05-24T02:42:15;96972.08;;;13.57;63.15
61359;BME280;47228;46.762;23.598;2023-05-24T02:44:43;96971.55;;;13.53;63.56
61359;BME280;47228;46.762;23.598;2023-05-24T02:47:14;96979.64;;;13.44;64.09
61359;BME280;47228;46.762;23.598;2023-05-24T02:49:42;96979.64;;;13.35;64.16
61359;BME280;47228;46.762;23.598;2023-05-24T02:52:10;96985.17;;;13.28;64.56
61359;BME280;47228;46.762;23.598;2023-05-24T02:54:38;96987.38;;;13.21;64.56
61359;BME280;47228;46.762;23.598;2023-05-24T02:57:06;96990.14;;;13.17;64.65
61359;BME280;47228;46.762;23.598;2023-05-24T02:59:34;96995.16;;;13.14;64.97
61359;BME280;47228;46.762;23.598;2023-05-24T03:02:03;96998.38;;;13.13;64.86
61359;BME280;47228;46.762;23.598;2023-05-24T03:04:31;97001.65;;;13.12;64.81
61359;BME280;47228;46.762;23.598;2023-05-24T03:06:59;97000.64;;;13.10;64.83
61359;BME280;47228;46.762;23.598;2023-05-24T03:09:28;96998.83;;;13.08;64.89
61359;BME280;47228;46.762;23.598;2023-05-24T03:11:55;96997.85;;;13.07;64.65
61359;BME280;47228;46.762;23.598;2023-05-24T03:14:23;96995.04;;;13.08;64.57
61359;BME280;47228;46.762;23.598;2023-05-24T03:16:51;96995.36;;;13.10;64.46
61359;BME280;47228;46.762;23.598;2023-05-24T03:19:19;96994.20;;;13.10;64.40
61359;BME280;47228;46.762;23.598;2023-05-24T03:21:47;96988.70;;;13.10;64.23
61359;BME280;47228;46.762;23.598;2023-05-24T03:24:15;96982.07;;;13.12;64.02
61359;BME280;47228;46.762;23.598;2023-05-24T03:26:43;96975.98;;;13.13;63.82
61359;BME280;47228;46.762;23.598;2023-05-24T03:29:11;96974.27;;;13.15;63.89
61359;BME280;47228;46.762;23.598;2023-05-24T03:31:39;96968.33;;;13.16;63.76
61359;BME280;47228;46.762;23.598;2023-05-24T03:34:08;96967.81;;;13.18;63.59
61359;BME280;47228;46.762;23.598;2023-05-24T03:36:36;96972.63;;;13.20;63.71
61359;BME280;47228;46.762;23.598;2023-05-24T03:39:04;96979.38;;;13.24;63.78
61359;BME280;47228;46.762;23.598;2023-05-24T03:41:32;96984.23;;;13.26;63.83
61359;BME280;47228;46.762;23.598;2023-05-24T03:44:00;96980.54;;;13.28;63.66
61359;BME280;47228;46.762;23.598;2023-05-24T03:46:28;96978.05;;;13.29;63.44
61359;BME280;47228;46.762;23.598;2023-05-24T03:48:56;96982.95;;;13.31;63.55
61359;BME280;47228;46.762;23.598;2023-05-24T03:51:24;96985.54;;;13.34;63.40
61359;BME280;47228;46.762;23.598;2023-05-24T03:53:56;96983.08;;;13.38;63.10
61359;BME280;47228;46.762;23.598;2023-05-24T03:56:25;96980.81;;;13.42;62.20
61359;BME280;47228;46.762;23.598;2023-05-24T03:58:53;96981.69;;;13.46;62.23
61359;BME280;47228;46.762;23.598;2023-05-24T04:01:21;96984.38;;;13.49;61.99
61359;BME280;47228;46.762;23.598;2023-05-24T04:04:00;96984.45;;;13.52;61.69
61359;BME280;47228;46.762;23.598;2023-05-24T04:06:29;96982.08;;;13.56;61.57
61359;BME280;47228;46.762;23.598;2023-05-24T04:08:58;96977.35;;;13.60;61.32
61359;BME280;47228;46.762;23.598;2023-05-24T04:11:27;96973.52;;;13.63;61.30
61359;BME280;47228;46.762;23.598;2023-05-24T04:13:56;96973.09;;;13.67;61.53
61359;BME280;47228;46.762;23.598;2023-05-24T04:16:24;96976.67;;;13.74;61.68
61359;BME280;47228;46.762;23.598;2023-05-24T04:18:56;96977.77;;;13.84;61.90
61359;BME280;47228;46.762;23.598;2023-05-24T04:21:24;96977.30;;;13.92;61.80
61359;BME280;47228;46.762;23.598;2023-05-24T04:23:52;96976.19;;;13.97;61.70
61359;BME280;47228;46.762;23.598;2023-05-24T04:26:20;96970.09;;;14.04;62.01
61359;BME280;47228;46.762;23.598;2023-05-24T04:28:49;96970.30;;;14.12;61.93
61359;BME280;47228;46.762;23.598;2023-05-24T04:31:17;96962.11;;;14.22;61.80
61359;BME280;47228;46.762;23.598;2023-05-24T04:33:45;96961.73;;;14.32;61.97
61359;BME280;47228;46.762;23.598;2023-05-24T04:36:15;96961.65;;;14.42;61.91
61359;BME280;47228;46.762;23.598;2023-05-24T04:38:44;96956.55;;;14.52;61.88
61359;BME280;47228;46.762;23.598;2023-05-24T04:41:13;96952.02;;;14.62;61.59
61359;BME280;47228;46.762;23.598;2023-05-24T04:43:41;96949.13;;;14.71;61.24
61359;BME280;47228;46.762;23.598;2023-05-24T04:46:09;96949.33;;;14.77;61.21
61359;BME280;47228;46.762;23.598;2023-05-24T04:48:37;96947.01;;;14.82;60.89
61359;BME280;47228;46.762;23.598;2023-05-24T04:51:05;96952.77;;;14.88;60.91
61359;BME280;47228;46.762;23.598;2023-05-24T04:53:33;96957.60;;;14.92;60.73
61359;BME280;47228;46.762;23.598;2023-05-24T04:56:01;96956.14;;;14.95;60.39
61359;BME280;47228;46.762;23.598;2023-05-24T04:58:29;96957.77;;;14.92;60.19
61359;BME280;47228;46.762;23.598;2023-05-24T05:00:57;96964.80;;;14.91;60.32
61359;BME280;47228;46.762;23.598;2023-05-24T05:03:25;96968.98;;;14.89;60.53
61359;BME280;47228;46.762;23.598;2023-05-24T05:05:53;96973.16;;;14.88;60.64
61359;BME280;47228;46.762;23.598;2023-05-24T05:08:21;96974.50;;;14.87;60.24
61359;BME280;47228;46.762;23.598;2023-05-24T05:10:49;96978.07;;;14.85;60.42
61359;BME280;47228;46.762;23.598;2023-05-24T05:13:17;96979.32;;;14.86;60.46
61359;BME280;47228;46.762;23.598;2023-05-24T05:15:45;96979.98;;;14.88;60.54
61359;BME280;47228;46.762;23.598;2023-05-24T05:18:13;96982.98;;;14.91;60.57
61359;BME280;47228;46.762;23.598;2023-05-24T05:20:41;96986.14;;;14.94;60.79
61359;BME280;47228;46.762;23.598;2023-05-24T05:23:09;96988.55;;;14.98;60.46
61359;BME280;47228;46.762;23.598;2023-05-24T05:25:37;96997.20;;;15.02;60.31
61359;BME280;47228;46.762;23.598;2023-05-24T05:28:05;96995.40;;;15.05;59.93
61359;BME280;47228;46.762;23.598;2023-05-24T05:30:33;96995.80;;;15.03;60.05
61359;BME280;47228;46.762;23.598;2023-05-24T05:33:01;96997.79;;;15.03;60.16
61359;BME280;47228;46.762;23.598;2023-05-24T05:35:32;96997.98;;;15.05;60.44
61359;BME280;47228;46.762;23.598;2023-05-24T05:38:00;96998.05;;;15.06;59.92
61359;BME280;47228;46.762;23.598;2023-05-24T05:40:28;97003.48;;;15.08;59.71
61359;BME280;47228;46.762;23.598;2023-05-24T05:42:56;97007.31;;;15.09;59.37
61359;BME280;47228;46.762;23.598;2023-05-24T05:45:24;97007.14;;;15.09;59.36
61359;BME280;47228;46.762;23.598;2023-05-24T05:47:52;97007.80;;;15.10;59.60
61359;BME280;47228;46.762;23.598;2023-05-24T05:50:20;97010.02;;;15.12;59.41
61359;BME280;47228;46.762;23.598;2023-05-24T05:52:48;97006.95;;;15.14;59.56
61359;BME280;47228;46.762;23.598;2023-05-24T05:55:16;97006.86;;;15.17;59.52
61359;BME280;47228;46.762;23.598;2023-05-24T05:57:44;97008.10;;;15.22;59.70
61359;BME280;47228;46.762;23.598;2023-05-24T06:00:12;97010.00;;;15.30;60.01
61359;BME280;47228;46.762;23.598;2023-05-24T06:02:41;97010.80;;;15.43;60.38
61359;BME280;47228;46.762;23.598;2023-05-24T06:05:09;97010.08;;;15.58;60.14
61359;BME280;47228;46.762;23.598;2023-05-24T06:07:37;97014.48;;;15.74;59.91
61359;BME280;47228;46.762;23.598;2023-05-24T06:10:05;97017.51;;;15.91;59.59
61359;BME280;47228;46.762;23.598;2023-05-24T06:12:33;97020.77;;;16.07;60.08
61359;BME280;47228;46.762;23.598;2023-05-24T06:15:02;97018.69;;;16.25;60.01
61359;BME280;47228;46.762;23.598;2023-05-24T06:17:33;97021.43;;;16.43;59.57
61359;BME280;47228;46.762;23.598;2023-05-24T06:20:05;97023.55;;;16.60;59.27
61359;BME280;47228;46.762;23.598;2023-05-24T06:22:38;97022.02;;;16.78;58.96
61359;BME280;47228;46.762;23.598;2023-05-24T06:25:06;97023.81;;;16.95;58.51
61359;BME280;47228;46.762;23.598;2023-05-24T06:27:34;97025.43;;;17.10;58.27
61359;BME280;47228;46.762;23.598;2023-05-24T06:30:03;97028.71;;;17.26;57.61
61359;BME280;47228;46.762;23.598;2023-05-24T06:32:31;97029.42;;;17.41;57.56
61359;BME280;47228;46.762;23.598;2023-05-24T06:34:59;97024.67;;;17.59;57.96
61359;BME280;47228;46.762;23.598;2023-05-24T06:37:28;97024.52;;;17.77;57.91
61359;BME280;47228;46.762;23.598;2023-05-24T06:39:57;97025.63;;;17.96;57.77
61359;BME280;47228;46.762;23.598;2023-05-24T06:42:25;97026.52;;;18.16;57.79
61359;BME280;47228;46.762;23.598;2023-05-24T06:44:53;97028.16;;;18.35;57.30
61359;BME280;47228;46.762;23.598;2023-05-24T06:47:21;97026.94;;;18.53;57.17
61359;BME280;47228;46.762;23.598;2023-05-24T06:49:49;97025.89;;;18.72;56.65
61359;BME280;47228;46.762;23.598;2023-05-24T06:52:17;97021.52;;;18.87;56.21
61359;BME280;47228;46.762;23.598;2023-05-24T06:54:45;97023.16;;;19.01;56.08
61359;BME280;47228;46.762;23.598;2023-05-24T06:57:13;97019.60;;;19.14;55.19
61359;BME280;47228;46.762;23.598;2023-05-24T06:59:41;97018.59;;;19.24;54.23
61359;BME280;47228;46.762;23.598;2023-05-24T07:02:09;97021.83;;;19.32;54.17
61359;BME280;47228;46.762;23.598;2023-05-24T07:04:37;97025.23;;;19.41;54.48
61359;BME280;47228;46.762;23.598;2023-05-24T07:07:08;97027.36;;;19.48;54.10
61359;BME280;47228;46.762;23.598;2023-05-24T07:09:40;97028.71;;;19.54;53.80
61359;BME280;47228;46.762;23.598;2023-05-24T07:12:09;97028.82;;;19.59;53.70
61359;BME280;47228;46.762;23.598;2023-05-24T07:14:37;97024.88;;;19.68;53.63
61359;BME280;47228;46.762;23.598;2023-05-24T07:17:04;97023.27;;;19.77;54.11
61359;BME280;47228;46.762;23.598;2023-05-24T07:19:33;97024.64;;;19.87;54.20
61359;BME280;47228;46.762;23.598;2023-05-24T07:22:02;97023.62;;;19.97;54.06
61359;BME280;47228;46.762;23.598;2023-05-24T07:24:30;97027.33;;;20.06;53.89
61359;BME280;47228;46.762;23.598;2023-05-24T07:26:58;97023.70;;;20.15;53.80
61359;BME280;47228;46.762;23.598;2023-05-24T07:29:26;97028.04;;;20.25;53.92
61359;BME280;47228;46.762;23.598;2023-05-24T07:31:54;97023.52;;;20.37;54.03
61359;BME280;47228;46.762;23.598;2023-05-24T07:34:25;97026.00;;;20.50;53.37
61359;BME280;47228;46.762;23.598;2023-05-24T07:36:56;97023.74;;;20.61;53.62
61359;BME280;47228;46.762;23.598;2023-05-24T07:39:27;97023.31;;;20.72;53.32
61359;BME280;47228;46.762;23.598;2023-05-24T07:41:55;97024.17;;;20.83;52.67
61359;BME280;47228;46.762;23.598;2023-05-24T07:44:23;97026.41;;;20.95;51.94
61359;BME280;47228;46.762;23.598;2023-05-24T07:46:52;97027.83;;;21.02;51.61
61359;BME280;47228;46.762;23.598;2023-05-24T07:49:22;97028.91;;;21.09;52.03
61359;BME280;47228;46.762;23.598;2023-05-24T07:51:50;97032.23;;;21.15;51.71
61359;BME280;47228;46.762;23.598;2023-05-24T07:54:18;97036.88;;;21.21;51.50
61359;BME280;47228;46.762;23.598;2023-05-24T07:56:47;97040.73;;;21.27;51.63
61359;BME280;47228;46.762;23.598;2023-05-24T07:59:14;97040.04;;;21.33;52.28
61359;BME280;47228;46.762;23.598;2023-05-24T08:01:43;97036.15;;;21.39;52.01
61359;BME280;47228;46.762;23.598;2023-05-24T08:04:11;97033.83;;;21.47;51.67
61359;BME280;47228;46.762;23.598;2023-05-24T08:06:39;97029.48;;;21.55;50.92
61359;BME280;47228;46.762;23.598;2023-05-24T08:09:07;97033.40;;;21.66;51.45
61359;BME280;47228;46.762;23.598;2023-05-24T08:11:35;97033.07;;;21.81;51.08
61359;BME280;47228;46.762;23.598;2023-05-24T08:14:03;97032.08;;;21.96;50.86
61359;BME280;47228;46.762;23.598;2023-05-24T08:16:31;97032.56;;;22.11;50.89
61359;BME280;47228;46.762;23.598;2023-05-24T08:18:59;97037.63;;;22.24;50.63
61359;BME280;47228;46.762;23.598;2023-05-24T08:21:27;97035.61;;;22.35;49.48
61359;BME280;47228;46.762;23.598;2023-05-24T08:23:55;97034.64;;;22.45;49.45
61359;BME280;47228;46.762;23.598;2023-05-24T08:26:24;97035.33;;;22.56;49.49
61359;BME280;47228;46.762;23.598;2023-05-24T08:28:52;97033.95;;;22.67;48.52
61359;BME280;47228;46.762;23.598;2023-05-24T08:31:21;97034.38;;;22.77;48.38
61359;BME280;47228;46.762;23.598;2023-05-24T08:33:49;97034.22;;;22.84;48.56
61359;BME280;47228;46.762;23.598;2023-05-24T08:36:17;97031.46;;;22.96;49.35
61359;BME280;47228;46.762;23.598;2023-05-24T08:38:46;97037.58;;;23.12;49.33
61359;BME280;47228;46.762;23.598;2023-05-24T08:41:13;97033.84;;;23.27;49.12
61359;BME280;47228;46.762;23.598;2023-05-24T08:43:42;97037.38;;;23.41;48.68
61359;BME280;47228;46.762;23.598;2023-05-24T08:46:15;97031.26;;;23.51;48.39
61359;BME280;47228;46.762;23.598;2023-05-24T08:48:45;97032.11;;;23.60;47.96
61359;BME280;47228;46.762;23.598;2023-05-24T08:51:14;97035.61;;;23.70;47.36
61359;BME280;47228;46.762;23.598;2023-05-24T08:53:43;97035.83;;;23.83;47.14
61359;BME280;47228;46.762;23.598;2023-05-24T08:56:16;97036.64;;;23.96;46.57
61359;BME280;47228;46.762;23.598;2023-05-24T08:58:45;97036.31;;;24.08;46.45
61359;BME280;47228;46.762;23.598;2023-05-24T09:01:15;97036.80;;;24.18;45.79
61359;BME280;47228;46.762;23.598;2023-05-24T09:03:47;97041.32;;;24.25;45.85
61359;BME280;47228;46.762;23.598;2023-05-24T09:06:17;97038.79;;;24.31;46.06
61359;BME280;47228;46.762;23.598;2023-05-24T09:08:46;97040.64;;;24.36;45.40
61359;BME280;47228;46.762;23.598;2023-05-24T09:11:17;97044.66;;;24.42;44.86
61359;BME280;47228;46.762;23.598;2023-05-24T09:13:46;97044.91;;;24.42;44.68
61359;BME280;47228;46.762;23.598;2023-05-24T09:16:14;97048.94;;;24.36;44.90
61359;BME280;47228;46.762;23.598;2023-05-24T09:18:43;97048.09;;;24.27;44.64
61359;BME280;47228;46.762;23.598;2023-05-24T09:21:10;97047.66;;;24.18;44.31
61359;BME280;47228;46.762;23.598;2023-05-24T09:23:40;97045.92;;;24.12;44.43
61359;BME280;47228;46.762;23.598;2023-05-24T09:26:09;97046.70;;;24.06;44.74
61359;BME280;47228;46.762;23.598;2023-05-24T09:28:37;97044.60;;;24.00;44.72
61359;BME280;47228;46.762;23.598;2023-05-24T09:31:05;97045.99;;;23.94;44.69
61359;BME280;47228;46.762;23.598;2023-05-24T09:33:35;97045.42;;;23.90;45.51
61359;BME280;47228;46.762;23.598;2023-05-24T09:36:03;97044.06;;;23.83;45.65
61359;BME280;47228;46.762;23.598;2023-05-24T09:38:32;97044.29;;;23.80;45.57
61359;BME280;47228;46.762;23.598;2023-05-24T09:41:05;97042.79;;;23.79;45.60
61359;BME280;47228;46.762;23.598;2023-05-24T09:43:34;97042.98;;;23.81;46.12
61359;BME280;47228;46.762;23.598;2023-05-24T09:46:19;97041.30;;;23.92;46.14
61359;BME280;47228;46.762;23.598;2023-05-24T09:48:58;97041.70;;;24.07;46.53
61359;BME280;47228;46.762;23.598;2023-05-24T09:51:26;97043.15;;;24.21;46.52
61359;BME280;47228;46.762;23.598;2023-05-24T09:54:04;97045.14;;;24.28;45.78
61359;BME280;47228;46.762;23.598;2023-05-24T09:56:32;97046.90;;;24.29;46.21
61359;BME280;47228;46.762;23.598;2023-05-24T09:59:07;97049.14;;;24.28;46.09
61359;BME280;47228;46.762;23.598;2023-05-24T10:01:36;97046.80;;;24.29;46.61
61359;BME280;47228;46.762;23.598;2023-05-24T10:04:04;97043.55;;;24.37;46.19
61359;BME280;47228;46.762;23.598;2023-05-24T10:06:54;97040.66;;;24.52;44.53
61359;BME280;47228;46.762;23.598;2023-05-24T10:09:24;97036.20;;;24.67;44.05
61359;BME280;47228;46.762;23.598;2023-05-24T10:11:54;97036.54;;;24.89;43.54
61359;BME280;47228;46.762;23.598;2023-05-24T10:14:24;97037.33;;;25.13;43.21
61359;BME280;47228;46.762;23.598;2023-05-24T10:16:52;97039.31;;;25.38;43.67
61359;BME280;47228;46.762;23.598;2023-05-24T10:19:20;97038.97;;;25.64;43.81
61359;BME280;47228;46.762;23.598;2023-05-24T10:21:51;97035.80;;;25.89;43.72
61359;BME280;47228;46.762;23.598;2023-05-24T10:24:24;97033.53;;;26.20;43.14
61359;BME280;47228;46.762;23.598;2023-05-24T10:26:54;97035.55;;;26.52;42.30
61359;BME280;47228;46.762;23.598;2023-05-24T10:32:15;97034.60;;;26.77;40.85
61359;BME280;47228;46.762;23.598;2023-05-24T10:34:45;97038.55;;;26.80;40.96
61359;BME280;47228;46.762;23.598;2023-05-24T10:37:16;97041.40;;;26.91;41.33
61359;BME280;47228;46.762;23.598;2023-05-24T10:39:44;97047.15;;;27.06;40.77
61359;BME280;47228;46.762;23.598;2023-05-24T10:42:12;97043.20;;;27.17;40.91
61359;BME280;47228;46.762;23.598;2023-05-24T10:44:40;97044.05;;;27.16;39.71
61359;BME280;47228;46.762;23.598;2023-05-24T10:47:10;97042.85;;;26.89;38.79
61359;BME280;47228;46.762;23.598;2023-05-24T10:49:55;97044.77;;;26.45;39.14
61359;BME280;47228;46.762;23.598;2023-05-24T10:52:35;97054.04;;;25.92;39.31
61359;BME280;47228;46.762;23.598;2023-05-24T10:55:08;97070.81;;;25.39;38.68
61359;BME280;47228;46.762;23.598;2023-05-24T10:57:38;97108.52;;;24.85;38.98
61359;BME280;47228;46.762;23.598;2023-05-24T11:03:06;97155.77;;;23.40;41.29
61359;BME280;47228;46.762;23.598;2023-05-24T11:11:10;97216.73;;;20.35;54.57
61359;BME280;47228;46.762;23.598;2023-05-24T11:13:55;97235.63;;;18.97;59.04
61359;BME280;47228;46.762;23.598;2023-05-24T11:16:35;97250.45;;;17.82;62.33
61359;BME280;47228;46.762;23.598;2023-05-24T11:19:11;97236.96;;;16.84;65.59
61359;BME280;47228;46.762;23.598;2023-05-24T11:21:43;97216.41;;;15.96;69.19
61359;BME280;47228;46.762;23.598;2023-05-24T11:24:11;97216.20;;;15.27;70.68
61359;BME280;47228;46.762;23.598;2023-05-24T11:26:40;97228.52;;;14.85;73.36
61359;BME280;47228;46.762;23.598;2023-05-24T11:29:08;97230.72;;;14.57;75.71
61359;BME280;47228;46.762;23.598;2023-05-24T11:31:36;97236.05;;;14.34;78.30
61359;BME280;47228;46.762;23.598;2023-05-24T11:34:11;97239.25;;;14.20;81.26
61359;BME280;47228;46.762;23.598;2023-05-24T11:36:39;97238.39;;;14.09;83.09
61359;BME280;47228;46.762;23.598;2023-05-24T11:39:07;97233.84;;;13.97;83.96
61359;BME280;47228;46.762;23.598;2023-05-24T11:41:37;97230.36;;;13.87;85.64
61359;BME280;47228;46.762;23.598;2023-05-24T11:44:07;97228.58;;;13.77;85.93
61359;BME280;47228;46.762;23.598;2023-05-24T11:46:37;97228.05;;;13.70;86.59
61359;BME280;47228;46.762;23.598;2023-05-24T11:49:06;97226.09;;;13.64;87.71
61359;BME280;47228;46.762;23.598;2023-05-24T11:51:38;97231.30;;;13.61;88.07
61359;BME280;47228;46.762;23.598;2023-05-24T11:54:06;97234.69;;;13.60;88.47
61359;BME280;47228;46.762;23.598;2023-05-24T11:56:35;97237.98;;;13.59;88.46
61359;BME280;47228;46.762;23.598;2023-05-24T11:59:14;97238.10;;;13.60;88.94
61359;BME280;47228;46.762;23.598;2023-05-24T12:01:43;97232.67;;;13.60;89.01
61359;BME280;47228;46.762;23.598;2023-05-24T12:04:11;97233.15;;;13.62;88.97
61359;BME280;47228;46.762;23.598;2023-05-24T12:06:41;97230.98;;;13.67;89.33
61359;BME280;47228;46.762;23.598;2023-05-24T12:09:11;97230.79;;;13.74;89.72
61359;BME280;47228;46.762;23.598;2023-05-24T12:11:47;97225.64;;;13.79;89.37
61359;BME280;47228;46.762;23.598;2023-05-24T12:14:26;97217.20;;;13.83;90.00
61359;BME280;47228;46.762;23.598;2023-05-24T12:16:55;97218.27;;;13.86;90.10
61359;BME280;47228;46.762;23.598;2023-05-24T12:19:25;97213.04;;;13.88;90.13
61359;BME280;47228;46.762;23.598;2023-05-24T12:22:03;97211.77;;;13.92;90.35
61359;BME280;47228;46.762;23.598;2023-05-24T12:24:33;97215.49;;;13.99;90.63
61359;BME280;47228;46.762;23.598;2023-05-24T12:27:03;97218.07;;;14.05;90.81
61359;BME280;47228;46.762;23.598;2023-05-24T12:29:37;97213.77;;;14.09;90.73
61359;BME280;47228;46.762;23.598;2023-05-24T12:32:10;97211.15;;;14.11;90.61
61359;BME280;47228;46.762;23.598;2023-05-24T12:34:41;97208.47;;;14.15;90.90
61359;BME280;47228;46.762;23.598;2023-05-24T12:37:10;97206.73;;;14.18;90.84
61359;BME280;47228;46.762;23.598;2023-05-24T12:39:40;97197.70;;;14.23;91.23
61359;BME280;47228;46.762;23.598;2023-05-24T12:42:11;97194.76;;;14.27;91.05
61359;BME280;47228;46.762;23.598;2023-05-24T12:44:41;97189.55;;;14.27;90.98
61359;BME280;47228;46.762;23.598;2023-05-24T12:47:11;97181.50;;;14.29;91.27
61359;BME280;47228;46.762;23.598;2023-05-24T12:49:39;97170.92;;;14.29;91.34
61359;BME280;47228;46.762;23.598;2023-05-24T12:52:07;97167.17;;;14.30;91.66
61359;BME280;47228;46.762;23.598;2023-05-24T12:54:36;97161.80;;;14.37;92.29
61359;BME280;47228;46.762;23.598;2023-05-24T12:57:04;97161.42;;;14.42;91.76
61359;BME280;47228;46.762;23.598;2023-05-24T12:59:32;97158.08;;;14.43;91.81
61359;BME280;47228;46.762;23.598;2023-05-24T13:02:00;97158.64;;;14.46;92.06
61359;BME280;47228;46.762;23.598;2023-05-24T13:04:29;97165.97;;;14.46;91.29
61359;BME280;47228;46.762;23.598;2023-05-24T13:07:01;97168.95;;;14.46;91.38
61359;BME280;47228;46.762;23.598;2023-05-24T13:09:29;97172.06;;;14.47;92.21
61359;BME280;47228;46.762;23.598;2023-05-24T13:11:57;97166.83;;;14.47;92.33
61359;BME280;47228;46.762;23.598;2023-05-24T13:14:25;97164.16;;;14.50;92.45
61359;BME280;47228;46.762;23.598;2023-05-24T13:16:54;97158.59;;;14.53;92.80
61359;BME280;47228;46.762;23.598;2023-05-24T13:19:22;97157.98;;;14.57;92.87
61359;BME280;47228;46.762;23.598;2023-05-24T13:21:50;97152.36;;;14.63;93.42
61359;BME280;47228;46.762;23.598;2023-05-24T13:24:19;97148.59;;;14.69;93.93